sensor_id;sensor_type;location;lat;lon;timestamp;temperature;humidity
4757;DHT22;2392;52.578;13.426;2023-02-11T00:01:20;4.10;99.90
4757;DHT22;2392;52.578;13.426;2023-02-11T00:03:49;4.10;99.90
4757;DHT22;2392;52.578;13.426;2023-02-11T00:06:17;4.10;99.90
4757;DHT22;2392;52.578;13.426;2023-02-11T00:08:44;4.10;99.90
4757;DHT22;2392;52.578;13.426;2023-02-11T00:11:12;4.20;99.90
4757;DHT22;2392;52.578;13.426;2023-02-11T00:13:40;4.10;99.90
4757;DHT22;2392;52.578;13.426;2023-02-11T00:16:08;4.10;99.90
4757;DHT22;2392;52.578;13.426;2023-02-11T00:18:36;4.20;99.90
4757;DHT22;2392;52.578;13.426;2023-02-11T00:21:08;4.20;99.90
4757;DHT22;2392;52.578;13.426;2023-02-11T00:23:35;4.20;99.90
4757;DHT22;2392;52.578;13.426;2023-02-11T00:26:11;4.20;99.90
4757;DHT22;2392;52.578;13.426;2023-02-11T00:28:39;4.20;99.90
4757;DHT22;2392;52.578;13.426;2023-02-11T00:31:10;4.20;99.90
4757;DHT22;2392;52.578;13.426;2023-02-11T00:33:37;4.20;99.90
4757;DHT22;2392;52.578;13.426;2023-02-11T00:36:07;4.20;99.90
4757;DHT22;2392;52.578;13.426;2023-02-11T00:38:35;4.20;99.90
4757;DHT22;2392;52.578;13.426;2023-02-11T00:41:02;4.20;99.90
4757;DHT22;2392;52.578;13.426;2023-02-11T00:43:30;4.30;99.90
4757;DHT22;2392;52.578;13.426;2023-02-11T00:45:57;4.30;99.90
4757;DHT22;2392;52.578;13.426;2023-02-11T00:48:25;4.30;99.90
4757;DHT22;2392;52.578;13.426;2023-02-11T00:50:52;4.40;99.90
4757;DHT22;2392;52.578;13.426;2023-02-11T00:53:20;4.40;99.90
4757;DHT22;2392;52.578;13.426;2023-02-11T00:55:47;4.40;99.90
4757;DHT22;2392;52.578;13.426;2023-02-11T00:58:15;4.40;99.90
4757;DHT22;2392;52.578;13.426;2023-02-11T01:00:42;4.40;99.90
4757;DHT22;2392;52.578;13.426;2023-02-11T01:03:09;4.40;99.90
4757;DHT22;2392;52.578;13.426;2023-02-11T01:05:36;4.40;99.90
4757;DHT22;2392;52.578;13.426;2023-02-11T01:08:03;4.30;99.90
4757;DHT22;2392;52.578;13.426;2023-02-11T01:10:32;4.30;99.90
4757;DHT22;2392;52.578;13.426;2023-02-11T01:12:59;4.30;99.90
4757;DHT22;2392;52.578;13.426;2023-02-11T01:15:26;4.40;99.90
4757;DHT22;2392;52.578;13.426;2023-02-11T01:17:55;4.40;99.90
4757;DHT22;2392;52.578;13.426;2023-02-11T01:20:24;4.40;99.90
4757;DHT22;2392;52.578;13.426;2023-02-11T01:22:51;4.40;99.90
4757;DHT22;2392;52.578;13.426;2023-02-11T01:25:18;4.40;99.90
4757;DHT22;2392;52.578;13.426;2023-02-11T01:27:47;4.40;99.90
4757;DHT22;2392;52.578;13.426;2023-02-11T01:30:14;4.40;99.90
4757;DHT22;2392;52.578;13.426;2023-02-11T01:32:41;4.40;99.90
4757;DHT22;2392;52.578;13.426;2023-02-11T01:35:08;4.30;99.90
4757;DHT22;2392;52.578;13.426;2023-02-11T01:37:36;4.40;99.90
4757;DHT22;2392;52.578;13.426;2023-02-11T01:40:04;4.40;99.90
4757;DHT22;2392;52.578;13.426;2023-02-11T01:42:33;4.40;99.90
4757;DHT22;2392;52.578;13.426;2023-02-11T01:48:14;4.40;99.90
4757;DHT22;2392;52.578;13.426;2023-02-11T01:50:42;4.40;99.90
4757;DHT22;2392;52.578;13.426;2023-02-11T01:53:10;4.50;99.90
4757;DHT22;2392;52.578;13.426;2023-02-11T01:55:58;4.50;99.90
4757;DHT22;2392;52.578;13.426;2023-02-11T01:58:44;4.50;99.90
4757;DHT22;2392;52.578;13.426;2023-02-11T02:01:18;4.50;99.90
4757;DHT22;2392;52.578;13.426;2023-02-11T02:03:52;4.50;99.90
4757;DHT22;2392;52.578;13.426;2023-02-11T02:06:25;4.60;99.90
4757;DHT22;2392;52.578;13.426;2023-02-11T02:08:56;4.60;99.90
4757;DHT22;2392;52.578;13.426;2023-02-11T02:11:24;4.60;99.90
4757;DHT22;2392;52.578;13.426;2023-02-11T02:13:51;4.60;99.90
4757;DHT22;2392;52.578;13.426;2023-02-11T02:16:21;4.60;99.90
4757;DHT22;2392;52.578;13.426;2023-02-11T02:18:58;4.70;99.90
4757;DHT22;2392;52.578;13.426;2023-02-11T02:21:52;4.70;99.90
4757;DHT22;2392;52.578;13.426;2023-02-11T02:27:36;4.80;99.90
4757;DHT22;2392;52.578;13.426;2023-02-11T02:30:37;4.80;99.90
4757;DHT22;2392;52.578;13.426;2023-02-11T02:33:26;4.80;99.90
4757;DHT22;2392;52.578;13.426;2023-02-11T02:36:03;4.80;99.90
4757;DHT22;2392;52.578;13.426;2023-02-11T02:38:35;4.80;99.90
4757;DHT22;2392;52.578;13.426;2023-02-11T02:41:05;4.80;99.90
4757;DHT22;2392;52.578;13.426;2023-02-11T02:43:35;4.80;99.90
4757;DHT22;2392;52.578;13.426;2023-02-11T02:46:13;4.80;99.90
4757;DHT22;2392;52.578;13.426;2023-02-11T02:48:43;4.80;99.90
4757;DHT22;2392;52.578;13.426;2023-02-11T02:51:22;4.80;99.90
4757;DHT22;2392;52.578;13.426;2023-02-11T02:54:01;4.80;99.90
4757;DHT22;2392;52.578;13.426;2023-02-11T02:56:36;4.80;99.90
4757;DHT22;2392;52.578;13.426;2023-02-11T02:59:17;4.80;99.90
4757;DHT22;2392;52.578;13.426;2023-02-11T03:01:52;4.90;99.90
4757;DHT22;2392;52.578;13.426;2023-02-11T03:04:28;4.80;99.90
4757;DHT22;2392;52.578;13.426;2023-02-11T03:07:01;4.90;99.90
4757;DHT22;2392;52.578;13.426;2023-02-11T03:09:31;4.90;99.90
4757;DHT22;2392;52.578;13.426;2023-02-11T03:12:00;4.90;99.90
4757;DHT22;2392;52.578;13.426;2023-02-11T03:14:29;4.90;99.90
4757;DHT22;2392;52.578;13.426;2023-02-11T03:16:58;4.90;99.90
4757;DHT22;2392;52.578;13.426;2023-02-11T03:19:29;4.90;99.90
4757;DHT22;2392;52.578;13.426;2023-02-11T03:21:58;4.90;99.90
4757;DHT22;2392;52.578;13.426;2023-02-11T03:24:28;4.90;99.90
4757;DHT22;2392;52.578;13.426;2023-02-11T03:26:59;4.90;99.90
4757;DHT22;2392;52.578;13.426;2023-02-11T03:29:32;4.90;99.90
4757;DHT22;2392;52.578;13.426;2023-02-11T03:32:04;4.80;99.90
4757;DHT22;2392;52.578;13.426;2023-02-11T03:34:37;4.80;99.90
4757;DHT22;2392;52.578;13.426;2023-02-11T03:37:11;4.80;99.90
4757;DHT22;2392;52.578;13.426;2023-02-11T03:39:43;4.80;99.90
4757;DHT22;2392;52.578;13.426;2023-02-11T03:42:13;4.80;99.90
4757;DHT22;2392;52.578;13.426;2023-02-11T03:44:45;4.80;99.90
4757;DHT22;2392;52.578;13.426;2023-02-11T03:47:16;4.80;99.90
4757;DHT22;2392;52.578;13.426;2023-02-11T03:49:47;4.80;99.90
4757;DHT22;2392;52.578;13.426;2023-02-11T03:52:17;4.90;99.90
4757;DHT22;2392;52.578;13.426;2023-02-11T03:54:50;4.90;99.90
4757;DHT22;2392;52.578;13.426;2023-02-11T03:57:19;4.80;99.90
4757;DHT22;2392;52.578;13.426;2023-02-11T03:59:50;4.80;99.90
4757;DHT22;2392;52.578;13.426;2023-02-11T04:02:18;4.80;99.90
4757;DHT22;2392;52.578;13.426;2023-02-11T04:04:46;4.80;99.90
4757;DHT22;2392;52.578;13.426;2023-02-11T04:07:13;4.80;99.90
4757;DHT22;2392;52.578;13.426;2023-02-11T04:09:40;4.90;99.90
4757;DHT22;2392;52.578;13.426;2023-02-11T04:12:07;4.90;99.90
4757;DHT22;2392;52.578;13.426;2023-02-11T04:14:34;4.90;99.90
4757;DHT22;2392;52.578;13.426;2023-02-11T04:17:01;4.90;99.90
4757;DHT22;2392;52.578;13.426;2023-02-11T04:19:28;4.90;99.90
4757;DHT22;2392;52.578;13.426;2023-02-11T04:21:57;4.90;99.90
4757;DHT22;2392;52.578;13.426;2023-02-11T04:24:24;5.00;99.90
4757;DHT22;2392;52.578;13.426;2023-02-11T04:26:51;5.00;99.90
4757;DHT22;2392;52.578;13.426;2023-02-11T04:29:18;5.00;99.90
4757;DHT22;2392;52.578;13.426;2023-02-11T04:31:45;5.00;99.90
4757;DHT22;2392;52.578;13.426;2023-02-11T04:34:12;5.00;99.90
4757;DHT22;2392;52.578;13.426;2023-02-11T04:36:39;5.10;99.90
4757;DHT22;2392;52.578;13.426;2023-02-11T04:39:07;5.10;99.90
4757;DHT22;2392;52.578;13.426;2023-02-11T04:41:34;5.10;99.90
4757;DHT22;2392;52.578;13.426;2023-02-11T04:44:01;5.10;99.90
4757;DHT22;2392;52.578;13.426;2023-02-11T04:46:28;5.10;99.90
4757;DHT22;2392;52.578;13.426;2023-02-11T04:48:56;5.10;99.90
4757;DHT22;2392;52.578;13.426;2023-02-11T04:51:23;5.10;99.90
4757;DHT22;2392;52.578;13.426;2023-02-11T04:53:50;5.10;99.90
4757;DHT22;2392;52.578;13.426;2023-02-11T04:56:18;5.10;99.90
4757;DHT22;2392;52.578;13.426;2023-02-11T04:58:45;5.00;99.90
4757;DHT22;2392;52.578;13.426;2023-02-11T05:01:14;5.00;99.90
4757;DHT22;2392;52.578;13.426;2023-02-11T05:03:42;5.00;99.90
4757;DHT22;2392;52.578;13.426;2023-02-11T05:06:10;4.90;99.90
4757;DHT22;2392;52.578;13.426;2023-02-11T05:08:37;4.90;99.90
4757;DHT22;2392;52.578;13.426;2023-02-11T05:11:04;4.90;99.90
4757;DHT22;2392;52.578;13.426;2023-02-11T05:13:32;4.90;99.90
4757;DHT22;2392;52.578;13.426;2023-02-11T05:16:00;4.90;99.90
4757;DHT22;2392;52.578;13.426;2023-02-11T05:18:27;4.80;99.90
4757;DHT22;2392;52.578;13.426;2023-02-11T05:20:53;4.90;99.90
4757;DHT22;2392;52.578;13.426;2023-02-11T05:23:20;4.80;99.90
4757;DHT22;2392;52.578;13.426;2023-02-11T05:25:47;4.80;99.90
4757;DHT22;2392;52.578;13.426;2023-02-11T05:28:15;4.80;99.90
4757;DHT22;2392;52.578;13.426;2023-02-11T05:30:43;4.90;99.90
4757;DHT22;2392;52.578;13.426;2023-02-11T05:33:10;4.90;99.90
4757;DHT22;2392;52.578;13.426;2023-02-11T05:35:37;4.90;99.90
4757;DHT22;2392;52.578;13.426;2023-02-11T05:38:04;4.90;99.90
4757;DHT22;2392;52.578;13.426;2023-02-11T05:40:31;4.90;99.90
4757;DHT22;2392;52.578;13.426;2023-02-11T05:42:58;5.00;99.90
4757;DHT22;2392;52.578;13.426;2023-02-11T05:45:25;5.00;99.90
4757;DHT22;2392;52.578;13.426;2023-02-11T05:47:53;5.00;99.90
4757;DHT22;2392;52.578;13.426;2023-02-11T05:50:20;5.00;99.90
4757;DHT22;2392;52.578;13.426;2023-02-11T05:52:51;5.00;99.90
4757;DHT22;2392;52.578;13.426;2023-02-11T05:55:18;5.00;99.90
4757;DHT22;2392;52.578;13.426;2023-02-11T05:57:45;5.00;99.90
4757;DHT22;2392;52.578;13.426;2023-02-11T06:00:13;5.10;99.90
4757;DHT22;2392;52.578;13.426;2023-02-11T06:02:40;5.10;99.90
4757;DHT22;2392;52.578;13.426;2023-02-11T06:05:09;5.10;99.90
4757;DHT22;2392;52.578;13.426;2023-02-11T06:07:36;5.10;99.90
4757;DHT22;2392;52.578;13.426;2023-02-11T06:10:04;5.10;99.90
4757;DHT22;2392;52.578;13.426;2023-02-11T06:12:31;5.10;99.90
4757;DHT22;2392;52.578;13.426;2023-02-11T06:14:58;5.20;99.90
4757;DHT22;2392;52.578;13.426;2023-02-11T06:17:25;5.20;99.90
4757;DHT22;2392;52.578;13.426;2023-02-11T06:19:53;5.20;99.90
4757;DHT22;2392;52.578;13.426;2023-02-11T06:22:21;5.20;99.90
4757;DHT22;2392;52.578;13.426;2023-02-11T06:24:48;5.20;99.90
4757;DHT22;2392;52.578;13.426;2023-02-11T06:27:15;5.30;99.90
4757;DHT22;2392;52.578;13.426;2023-02-11T06:29:43;5.30;99.90
4757;DHT22;2392;52.578;13.426;2023-02-11T06:32:11;5.30;99.90
4757;DHT22;2392;52.578;13.426;2023-02-11T06:34:38;5.30;99.90
4757;DHT22;2392;52.578;13.426;2023-02-11T06:37:05;5.30;99.90
4757;DHT22;2392;52.578;13.426;2023-02-11T06:39:34;5.20;99.90
4757;DHT22;2392;52.578;13.426;2023-02-11T06:42:00;5.30;99.90
4757;DHT22;2392;52.578;13.426;2023-02-11T06:44:28;5.20;99.90
4757;DHT22;2392;52.578;13.426;2023-02-11T06:46:55;5.20;99.90
4757;DHT22;2392;52.578;13.426;2023-02-11T06:49:21;5.20;99.90
4757;DHT22;2392;52.578;13.426;2023-02-11T06:51:48;5.20;99.90
4757;DHT22;2392;52.578;13.426;2023-02-11T06:54:15;5.20;99.90
4757;DHT22;2392;52.578;13.426;2023-02-11T06:56:44;5.30;99.90
4757;DHT22;2392;52.578;13.426;2023-02-11T06:59:14;5.20;99.90
4757;DHT22;2392;52.578;13.426;2023-02-11T07:01:41;5.30;99.90
4757;DHT22;2392;52.578;13.426;2023-02-11T07:04:08;5.30;99.90
4757;DHT22;2392;52.578;13.426;2023-02-11T07:06:35;5.30;99.90
4757;DHT22;2392;52.578;13.426;2023-02-11T07:09:03;5.30;99.90
4757;DHT22;2392;52.578;13.426;2023-02-11T07:11:31;5.30;99.90
4757;DHT22;2392;52.578;13.426;2023-02-11T07:14:03;5.30;99.90
4757;DHT22;2392;52.578;13.426;2023-02-11T07:16:31;5.40;99.90
4757;DHT22;2392;52.578;13.426;2023-02-11T07:18:58;5.40;99.90
4757;DHT22;2392;52.578;13.426;2023-02-11T07:21:25;5.40;99.90
4757;DHT22;2392;52.578;13.426;2023-02-11T07:23:52;5.50;99.90
4757;DHT22;2392;52.578;13.426;2023-02-11T07:26:21;5.50;99.90
4757;DHT22;2392;52.578;13.426;2023-02-11T07:28:48;5.50;99.90
4757;DHT22;2392;52.578;13.426;2023-02-11T07:31:18;5.60;99.90
4757;DHT22;2392;52.578;13.426;2023-02-11T07:33:46;5.60;99.90
4757;DHT22;2392;52.578;13.426;2023-02-11T07:36:14;5.70;99.90
4757;DHT22;2392;52.578;13.426;2023-02-11T07:38:42;5.70;99.90
4757;DHT22;2392;52.578;13.426;2023-02-11T07:41:11;5.70;99.90
4757;DHT22;2392;52.578;13.426;2023-02-11T07:43:39;5.70;99.90
4757;DHT22;2392;52.578;13.426;2023-02-11T07:46:08;5.80;99.90
4757;DHT22;2392;52.578;13.426;2023-02-11T07:48:37;5.80;99.90
4757;DHT22;2392;52.578;13.426;2023-02-11T07:51:05;5.80;99.90
4757;DHT22;2392;52.578;13.426;2023-02-11T07:53:32;5.90;99.90
4757;DHT22;2392;52.578;13.426;2023-02-11T07:55:59;5.90;99.90
4757;DHT22;2392;52.578;13.426;2023-02-11T07:58:26;5.90;99.90
4757;DHT22;2392;52.578;13.426;2023-02-11T08:00:53;6.00;99.90
4757;DHT22;2392;52.578;13.426;2023-02-11T08:03:20;6.10;99.90
4757;DHT22;2392;52.578;13.426;2023-02-11T08:05:49;6.10;99.90
4757;DHT22;2392;52.578;13.426;2023-02-11T08:08:16;6.10;99.90
4757;DHT22;2392;52.578;13.426;2023-02-11T08:10:42;6.20;99.90
4757;DHT22;2392;52.578;13.426;2023-02-11T08:13:09;6.20;99.90
4757;DHT22;2392;52.578;13.426;2023-02-11T08:15:36;6.20;99.90
4757;DHT22;2392;52.578;13.426;2023-02-11T08:18:03;6.30;99.90
4757;DHT22;2392;52.578;13.426;2023-02-11T08:20:30;6.30;99.90
4757;DHT22;2392;52.578;13.426;2023-02-11T08:22:59;6.40;99.90
4757;DHT22;2392;52.578;13.426;2023-02-11T08:25:26;6.40;99.90
4757;DHT22;2392;52.578;13.426;2023-02-11T08:27:54;6.40;99.90
4757;DHT22;2392;52.578;13.426;2023-02-11T08:30:21;6.40;99.90
4757;DHT22;2392;52.578;13.426;2023-02-11T08:32:48;6.40;99.90
4757;DHT22;2392;52.578;13.426;2023-02-11T08:35:15;6.40;99.90
4757;DHT22;2392;52.578;13.426;2023-02-11T08:37:42;6.40;99.90
4757;DHT22;2392;52.578;13.426;2023-02-11T08:40:11;6.40;99.90
4757;DHT22;2392;52.578;13.426;2023-02-11T08:42:38;6.40;99.90
4757;DHT22;2392;52.578;13.426;2023-02-11T08:45:06;6.30;99.90
4757;DHT22;2392;52.578;13.426;2023-02-11T08:47:35;6.30;99.90
4757;DHT22;2392;52.578;13.426;2023-02-11T08:50:02;6.30;99.90
4757;DHT22;2392;52.578;13.426;2023-02-11T08:52:29;6.30;99.90
4757;DHT22;2392;52.578;13.426;2023-02-11T08:54:56;6.30;99.90
4757;DHT22;2392;52.578;13.426;2023-02-11T08:57:24;6.30;99.90
4757;DHT22;2392;52.578;13.426;2023-02-11T08:59:51;6.30;99.90
4757;DHT22;2392;52.578;13.426;2023-02-11T09:02:18;6.30;99.90
4757;DHT22;2392;52.578;13.426;2023-02-11T09:04:45;6.30;99.90
4757;DHT22;2392;52.578;13.426;2023-02-11T09:07:12;6.40;99.90
4757;DHT22;2392;52.578;13.426;2023-02-11T09:09:39;6.40;99.90
4757;DHT22;2392;52.578;13.426;2023-02-11T09:12:06;6.40;99.90
4757;DHT22;2392;52.578;13.426;2023-02-11T09:14:35;6.40;99.90
4757;DHT22;2392;52.578;13.426;2023-02-11T09:17:03;6.40;99.90
4757;DHT22;2392;52.578;13.426;2023-02-11T09:19:30;6.40;99.90
4757;DHT22;2392;52.578;13.426;2023-02-11T09:21:56;6.50;99.90
4757;DHT22;2392;52.578;13.426;2023-02-11T09:24:23;6.40;99.90
4757;DHT22;2392;52.578;13.426;2023-02-11T09:26:50;6.40;99.90
4757;DHT22;2392;52.578;13.426;2023-02-11T09:29:17;6.40;99.90
4757;DHT22;2392;52.578;13.426;2023-02-11T09:31:46;6.50;99.90
4757;DHT22;2392;52.578;13.426;2023-02-11T09:34:13;6.50;99.90
4757;DHT22;2392;52.578;13.426;2023-02-11T09:36:40;6.50;99.90
4757;DHT22;2392;52.578;13.426;2023-02-11T09:39:11;6.50;99.90
4757;DHT22;2392;52.578;13.426;2023-02-11T09:41:55;6.50;99.90
4757;DHT22;2392;52.578;13.426;2023-02-11T09:44:29;6.50;99.90
4757;DHT22;2392;52.578;13.426;2023-02-11T09:47:00;6.60;99.90
4757;DHT22;2392;52.578;13.426;2023-02-11T09:49:33;6.60;99.90
4757;DHT22;2392;52.578;13.426;2023-02-11T09:52:05;6.60;99.90
4757;DHT22;2392;52.578;13.426;2023-02-11T09:54:36;6.60;99.90
4757;DHT22;2392;52.578;13.426;2023-02-11T09:57:06;6.60;99.90
4757;DHT22;2392;52.578;13.426;2023-02-11T09:59:34;6.60;99.90
4757;DHT22;2392;52.578;13.426;2023-02-11T10:02:08;6.60;99.90
4757;DHT22;2392;52.578;13.426;2023-02-11T10:04:51;6.60;99.90
4757;DHT22;2392;52.578;13.426;2023-02-11T10:07:24;6.60;99.90
4757;DHT22;2392;52.578;13.426;2023-02-11T10:10:06;6.60;99.90
4757;DHT22;2392;52.578;13.426;2023-02-11T10:12:57;6.60;99.90
4757;DHT22;2392;52.578;13.426;2023-02-11T10:15:35;6.60;99.90
4757;DHT22;2392;52.578;13.426;2023-02-11T10:18:35;6.60;99.90
4757;DHT22;2392;52.578;13.426;2023-02-11T10:21:14;6.60;99.90
4757;DHT22;2392;52.578;13.426;2023-02-11T10:23:46;6.60;99.90
4757;DHT22;2392;52.578;13.426;2023-02-11T10:26:17;6.60;99.90
4757;DHT22;2392;52.578;13.426;2023-02-11T10:28:46;6.60;99.90
4757;DHT22;2392;52.578;13.426;2023-02-11T10:31:16;6.60;99.90
4757;DHT22;2392;52.578;13.426;2023-02-11T10:33:50;6.60;99.90
4757;DHT22;2392;52.578;13.426;2023-02-11T10:36:23;6.60;99.90
4757;DHT22;2392;52.578;13.426;2023-02-11T10:38:51;6.70;99.90
4757;DHT22;2392;52.578;13.426;2023-02-11T10:41:21;6.80;99.90
4757;DHT22;2392;52.578;13.426;2023-02-11T10:43:50;6.80;99.90
4757;DHT22;2392;52.578;13.426;2023-02-11T10:46:21;6.90;99.90
4757;DHT22;2392;52.578;13.426;2023-02-11T10:48:52;6.90;99.90
4757;DHT22;2392;52.578;13.426;2023-02-11T10:51:22;6.80;99.90
4757;DHT22;2392;52.578;13.426;2023-02-11T10:53:57;6.80;99.90
4757;DHT22;2392;52.578;13.426;2023-02-11T10:56:40;6.80;99.90
4757;DHT22;2392;52.578;13.426;2023-02-11T10:59:14;6.70;99.90
4757;DHT22;2392;52.578;13.426;2023-02-11T11:01:45;6.80;99.90
4757;DHT22;2392;52.578;13.426;2023-02-11T11:04:33;6.80;99.90
4757;DHT22;2392;52.578;13.426;2023-02-11T11:07:14;6.80;99.90
4757;DHT22;2392;52.578;13.426;2023-02-11T11:09:47;6.80;99.90
4757;DHT22;2392;52.578;13.426;2023-02-11T11:12:25;6.70;99.90
4757;DHT22;2392;52.578;13.426;2023-02-11T11:14:54;6.80;99.90
4757;DHT22;2392;52.578;13.426;2023-02-11T11:17:22;6.80;99.90
4757;DHT22;2392;52.578;13.426;2023-02-11T11:19:51;6.80;99.90
4757;DHT22;2392;52.578;13.426;2023-02-11T11:22:20;6.80;99.90
4757;DHT22;2392;52.578;13.426;2023-02-11T11:24:48;6.80;99.90
4757;DHT22;2392;52.578;13.426;2023-02-11T11:27:22;6.80;99.90
4757;DHT22;2392;52.578;13.426;2023-02-11T11:29:50;6.80;99.90
4757;DHT22;2392;52.578;13.426;2023-02-11T11:32:21;6.80;99.90
4757;DHT22;2392;52.578;13.426;2023-02-11T11:34:52;6.90;99.90
4757;DHT22;2392;52.578;13.426;2023-02-11T11:37:23;6.90;99.90
4757;DHT22;2392;52.578;13.426;2023-02-11T11:39:55;6.90;99.90
4757;DHT22;2392;52.578;13.426;2023-02-11T11:42:28;6.90;99.90
4757;DHT22;2392;52.578;13.426;2023-02-11T11:44:57;6.90;99.90
4757;DHT22;2392;52.578;13.426;2023-02-11T11:47:30;6.90;99.90
4757;DHT22;2392;52.578;13.426;2023-02-11T11:50:15;7.00;99.90
4757;DHT22;2392;52.578;13.426;2023-02-11T11:52:49;7.00;99.90
4757;DHT22;2392;52.578;13.426;2023-02-11T11:55:21;7.00;99.90
4757;DHT22;2392;52.578;13.426;2023-02-11T11:57:49;7.10;99.90
4757;DHT22;2392;52.578;13.426;2023-02-11T12:00:20;7.10;99.90
4757;DHT22;2392;52.578;13.426;2023-02-11T12:03:30;7.10;99.90
4757;DHT22;2392;52.578;13.426;2023-02-11T12:06:13;7.20;99.90
4757;DHT22;2392;52.578;13.426;2023-02-11T12:08:53;7.20;99.90
4757;DHT22;2392;52.578;13.426;2023-02-11T12:11:27;7.20;99.90
4757;DHT22;2392;52.578;13.426;2023-02-11T12:14:07;7.20;99.90
4757;DHT22;2392;52.578;13.426;2023-02-11T12:16:47;7.20;99.90
4757;DHT22;2392;52.578;13.426;2023-02-11T12:19:45;7.30;99.90
4757;DHT22;2392;52.578;13.426;2023-02-11T12:22:25;7.30;99.90
4757;DHT22;2392;52.578;13.426;2023-02-11T12:25:19;7.40;99.90
4757;DHT22;2392;52.578;13.426;2023-02-11T12:27:55;7.40;99.90
4757;DHT22;2392;52.578;13.426;2023-02-11T12:30:46;7.40;99.90
4757;DHT22;2392;52.578;13.426;2023-02-11T12:33:22;7.40;99.90
4757;DHT22;2392;52.578;13.426;2023-02-11T12:35:55;7.50;99.90
4757;DHT22;2392;52.578;13.426;2023-02-11T12:38:39;7.50;99.90
4757;DHT22;2392;52.578;13.426;2023-02-11T12:41:30;7.60;99.90
4757;DHT22;2392;52.578;13.426;2023-02-11T12:44:23;7.50;99.90
4757;DHT22;2392;52.578;13.426;2023-02-11T12:46:58;7.60;99.90
4757;DHT22;2392;52.578;13.426;2023-02-11T12:49:40;7.60;99.90
4757;DHT22;2392;52.578;13.426;2023-02-11T12:52:23;7.60;99.90
4757;DHT22;2392;52.578;13.426;2023-02-11T12:54:58;7.60;99.90
4757;DHT22;2392;52.578;13.426;2023-02-11T12:57:28;7.60;99.90
4757;DHT22;2392;52.578;13.426;2023-02-11T12:59:59;7.60;99.90
4757;DHT22;2392;52.578;13.426;2023-02-11T13:02:34;7.60;99.90
4757;DHT22;2392;52.578;13.426;2023-02-11T13:05:07;7.60;99.90
4757;DHT22;2392;52.578;13.426;2023-02-11T13:07:41;7.60;99.90
4757;DHT22;2392;52.578;13.426;2023-02-11T13:10:23;7.60;99.90
4757;DHT22;2392;52.578;13.426;2023-02-11T13:12:52;7.70;99.90
4757;DHT22;2392;52.578;13.426;2023-02-11T13:15:38;7.70;99.90
4757;DHT22;2392;52.578;13.426;2023-02-11T13:18:16;7.70;99.90
4757;DHT22;2392;52.578;13.426;2023-02-11T13:20:52;7.70;99.90
4757;DHT22;2392;52.578;13.426;2023-02-11T13:23:25;7.70;99.90
4757;DHT22;2392;52.578;13.426;2023-02-11T13:26:02;7.70;99.90
4757;DHT22;2392;52.578;13.426;2023-02-11T13:28:38;7.70;99.90
4757;DHT22;2392;52.578;13.426;2023-02-11T13:31:09;7.70;99.90
4757;DHT22;2392;52.578;13.426;2023-02-11T13:33:38;7.70;99.90
4757;DHT22;2392;52.578;13.426;2023-02-11T13:36:16;7.70;99.90
4757;DHT22;2392;52.578;13.426;2023-02-11T13:38:53;7.70;99.90
4757;DHT22;2392;52.578;13.426;2023-02-11T13:41:29;7.70;99.90
4757;DHT22;2392;52.578;13.426;2023-02-11T13:44:00;7.70;99.90
4757;DHT22;2392;52.578;13.426;2023-02-11T13:46:29;7.70;99.90
4757;DHT22;2392;52.578;13.426;2023-02-11T13:49:18;7.70;99.90
4757;DHT22;2392;52.578;13.426;2023-02-11T13:51:47;7.70;99.90
4757;DHT22;2392;52.578;13.426;2023-02-11T13:54:25;7.70;99.90
4757;DHT22;2392;52.578;13.426;2023-02-11T14:03:36;7.70;99.90
4757;DHT22;2392;52.578;13.426;2023-02-11T14:06:25;7.70;99.90
4757;DHT22;2392;52.578;13.426;2023-02-11T14:09:33;7.70;99.90
4757;DHT22;2392;52.578;13.426;2023-02-11T14:12:21;7.70;99.90
4757;DHT22;2392;52.578;13.426;2023-02-11T14:15:00;7.70;99.90
4757;DHT22;2392;52.578;13.426;2023-02-11T14:17:32;7.70;99.90
4757;DHT22;2392;52.578;13.426;2023-02-11T14:20:32;7.70;99.90
4757;DHT22;2392;52.578;13.426;2023-02-11T14:23:00;7.70;99.90
4757;DHT22;2392;52.578;13.426;2023-02-11T14:25:29;7.70;99.90
4757;DHT22;2392;52.578;13.426;2023-02-11T14:28:01;7.60;99.90
4757;DHT22;2392;52.578;13.426;2023-02-11T14:30:45;7.60;99.90
4757;DHT22;2392;52.578;13.426;2023-02-11T14:36:17;7.70;99.90
4757;DHT22;2392;52.578;13.426;2023-02-11T14:38:55;7.70;99.90
4757;DHT22;2392;52.578;13.426;2023-02-11T14:41:27;7.70;99.90
4757;DHT22;2392;52.578;13.426;2023-02-11T14:43:57;7.70;99.90
4757;DHT22;2392;52.578;13.426;2023-02-11T14:46:27;7.60;99.90
4757;DHT22;2392;52.578;13.426;2023-02-11T14:48:59;7.70;99.90
4757;DHT22;2392;52.578;13.426;2023-02-11T14:51:29;7.70;99.90
4757;DHT22;2392;52.578;13.426;2023-02-11T14:54:01;7.70;99.90
4757;DHT22;2392;52.578;13.426;2023-02-11T14:56:30;7.70;99.90
4757;DHT22;2392;52.578;13.426;2023-02-11T14:58:59;7.70;99.90
4757;DHT22;2392;52.578;13.426;2023-02-11T15:01:29;7.70;99.90
4757;DHT22;2392;52.578;13.426;2023-02-11T15:03:57;7.70;99.90
4757;DHT22;2392;52.578;13.426;2023-02-11T15:06:29;7.70;99.90
4757;DHT22;2392;52.578;13.426;2023-02-11T15:08:59;7.70;99.90
4757;DHT22;2392;52.578;13.426;2023-02-11T15:11:29;7.70;99.90
4757;DHT22;2392;52.578;13.426;2023-02-11T15:14:00;7.70;99.90
4757;DHT22;2392;52.578;13.426;2023-02-11T15:16:32;7.70;99.90
4757;DHT22;2392;52.578;13.426;2023-02-11T15:19:01;7.70;99.90
4757;DHT22;2392;52.578;13.426;2023-02-11T15:21:33;7.70;99.90
4757;DHT22;2392;52.578;13.426;2023-02-11T15:24:03;7.60;99.90
4757;DHT22;2392;52.578;13.426;2023-02-11T15:26:32;7.70;99.90
4757;DHT22;2392;52.578;13.426;2023-02-11T15:28:59;7.60;99.90
4757;DHT22;2392;52.578;13.426;2023-02-11T15:31:27;7.60;99.90
4757;DHT22;2392;52.578;13.426;2023-02-11T15:33:54;7.60;99.90
4757;DHT22;2392;52.578;13.426;2023-02-11T15:36:23;7.60;99.90
4757;DHT22;2392;52.578;13.426;2023-02-11T15:39:29;7.70;99.90
4757;DHT22;2392;52.578;13.426;2023-02-11T15:42:15;7.70;99.90
4757;DHT22;2392;52.578;13.426;2023-02-11T15:44:42;7.70;99.90
4757;DHT22;2392;52.578;13.426;2023-02-11T15:47:10;7.70;99.90
4757;DHT22;2392;52.578;13.426;2023-02-11T15:49:37;7.70;99.90
4757;DHT22;2392;52.578;13.426;2023-02-11T15:52:06;7.70;99.90
4757;DHT22;2392;52.578;13.426;2023-02-11T15:54:35;7.70;99.90
4757;DHT22;2392;52.578;13.426;2023-02-11T15:57:05;7.70;99.90
4757;DHT22;2392;52.578;13.426;2023-02-11T15:59:35;7.70;99.90
4757;DHT22;2392;52.578;13.426;2023-02-11T16:02:08;7.70;99.90
4757;DHT22;2392;52.578;13.426;2023-02-11T16:04:48;7.60;99.90
4757;DHT22;2392;52.578;13.426;2023-02-11T16:07:41;7.70;99.90
4757;DHT22;2392;52.578;13.426;2023-02-11T16:10:24;7.70;99.90
4757;DHT22;2392;52.578;13.426;2023-02-11T16:12:53;7.70;99.90
4757;DHT22;2392;52.578;13.426;2023-02-11T16:15:43;7.70;99.90
4757;DHT22;2392;52.578;13.426;2023-02-11T16:18:27;7.70;99.90
4757;DHT22;2392;52.578;13.426;2023-02-11T16:20:56;7.70;99.90
4757;DHT22;2392;52.578;13.426;2023-02-11T16:23:26;7.70;99.90
4757;DHT22;2392;52.578;13.426;2023-02-11T16:26:00;7.70;99.90
4757;DHT22;2392;52.578;13.426;2023-02-11T16:28:30;7.70;99.90
4757;DHT22;2392;52.578;13.426;2023-02-11T16:30:57;7.70;99.90
4757;DHT22;2392;52.578;13.426;2023-02-11T16:33:25;7.80;99.90
4757;DHT22;2392;52.578;13.426;2023-02-11T16:35:53;7.70;99.90
4757;DHT22;2392;52.578;13.426;2023-02-11T16:38:20;7.80;99.90
4757;DHT22;2392;52.578;13.426;2023-02-11T16:40:47;7.80;99.90
4757;DHT22;2392;52.578;13.426;2023-02-11T16:43:18;7.80;99.90
4757;DHT22;2392;52.578;13.426;2023-02-11T16:45:45;7.80;99.90